Time;durP1;ratioP1;P1;durP2;ratioP2;P2;SDS_P1;SDS_P2;PMS_P1;PMS_P2;Temp;Humidity;BMP_temperature;BMP_pressure;BME280_temperature;BME280_humidity;BME280_pressure;Samples;Min_cycle;Max_cycle;Signal;HPM_P1;HPM_P2
2022/04/03 00:00:26;;;;;;;0.73;0.50;;;;;;;17.58;30.24;96952.66;5052290;28;20047;-71
2022/04/03 00:02:51;;;;;;;0.82;0.70;;;;;;;17.57;30.44;96965.22;5051901;28;20037;-71
2022/04/03 00:05:18;;;;;;;1.80;0.70;;;;;;;17.58;30.26;96958.81;5052187;28;20036;-72
2022/04/03 00:07:44;;;;;;;0.68;0.55;;;;;;;17.53;30.15;96956.81;5052028;28;20450;-71
2022/04/03 00:10:10;;;;;;;1.40;0.77;;;;;;;17.53;30.09;96964.03;5052219;28;20032;-71
2022/04/03 00:12:36;;;;;;;1.50;0.70;;;;;;;17.52;30.26;96967.75;5051993;28;20111;-69
2022/04/03 00:15:01;;;;;;;0.98;0.68;;;;;;;17.52;30.34;96962.41;5052589;28;20034;-69
2022/04/03 00:17:27;;;;;;;1.52;0.70;;;;;;;17.50;30.44;96956.47;5052370;28;20098;-70
2022/04/03 00:19:52;;;;;;;1.00;0.60;;;;;;;17.48;30.21;96958.56;5052522;28;20036;-70
2022/04/03 00:22:18;;;;;;;0.77;0.60;;;;;;;17.46;30.44;96963.31;5051509;28;20063;-69
2022/04/03 00:24:43;;;;;;;0.65;0.50;;;;;;;17.45;30.45;96962.53;5052249;28;20544;-71
2022/04/03 00:27:09;;;;;;;1.60;0.88;;;;;;;17.44;30.36;96952.88;5051701;28;20546;-68
2022/04/03 00:29:34;;;;;;;0.90;0.60;;;;;;;17.44;30.47;96960.06;5052423;28;20186;-71
2022/04/03 00:32:02;;;;;;;0.82;0.60;;;;;;;17.46;30.52;96964.16;5052142;28;20087;-70
2022/04/03 00:34:27;;;;;;;1.10;0.73;;;;;;;17.45;30.40;96959.84;5038836;28;20119;-70
2022/04/03 00:36:54;;;;;;;0.80;0.65;;;;;;;17.44;30.27;96960.06;5051209;28;20131;-69
2022/04/03 00:39:20;;;;;;;1.27;0.80;;;;;;;17.48;30.38;96956.72;5052311;28;20408;-70
2022/04/03 00:41:46;;;;;;;0.60;0.57;;;;;;;17.51;30.23;96952.75;5051994;28;20033;-69
2022/04/03 00:44:12;;;;;;;0.93;0.75;;;;;;;17.52;30.43;96947.19;5051816;28;20041;-68
2022/04/03 00:46:40;;;;;;;0.82;0.60;;;;;;;17.50;30.30;96949.25;5051489;28;20041;-68
2022/04/03 00:49:06;;;;;;;1.08;0.55;;;;;;;17.50;30.27;96943.13;5052524;28;20041;-71
2022/04/03 00:51:33;;;;;;;0.80;0.55;;;;;;;17.51;30.51;96950.88;5051868;28;20048;-68
2022/04/03 00:53:59;;;;;;;1.35;0.70;;;;;;;17.57;30.38;96945.69;5050676;28;20510;-71
2022/04/03 00:56:24;;;;;;;0.80;0.57;;;;;;;17.67;30.58;96943.25;5051356;28;20115;-69
2022/04/03 00:58:50;;;;;;;1.85;0.80;;;;;;;17.78;30.24;96947.00;5055450;28;20107;-69
2022/04/03 01:01:16;;;;;;;0.70;0.52;;;;;;;17.88;30.33;96949.91;5055227;28;20037;-70
2022/04/03 01:03:41;;;;;;;0.82;0.52;;;;;;;17.96;30.23;96944.22;5055328;28;20044;-69
2022/04/03 01:06:07;;;;;;;1.23;0.70;;;;;;;18.04;30.09;96943.09;5055847;28;20040;-69
2022/04/03 01:08:33;;;;;;;1.65;0.90;;;;;;;18.10;30.27;96933.31;5055098;28;20044;-69
2022/04/03 01:10:59;;;;;;;0.90;0.60;;;;;;;18.17;29.97;96941.22;5055665;28;20051;-69
2022/04/03 01:13:25;;;;;;;1.08;0.60;;;;;;;18.20;29.89;96933.53;5055742;28;20447;-70
2022/04/03 01:16:00;;;;;;;1.30;0.80;;;;;;;18.25;29.80;96930.97;5039962;28;20041;-68
2022/04/03 01:18:27;;;;;;;0.70;0.52;;;;;;;18.27;29.64;96936.91;5049424;28;20037;-70
2022/04/03 01:20:54;;;;;;;0.80;0.70;;;;;;;18.24;29.35;96934.69;5055344;28;20523;-68
2022/04/03 01:23:25;;;;;;;1.30;0.73;;;;;;;18.15;29.31;96936.91;5053785;28;20025;-69
2022/04/03 01:25:50;;;;;;;1.70;0.80;;;;;;;18.06;29.59;96938.31;5055040;28;20064;-70
2022/04/03 01:28:16;;;;;;;0.77;0.52;;;;;;;17.97;29.49;96937.84;5054922;28;20385;-71
2022/04/03 01:30:42;;;;;;;0.68;0.65;;;;;;;17.91;29.33;96936.06;5055393;28;20039;-70
2022/04/03 01:33:07;;;;;;;0.93;0.77;;;;;;;17.87;29.50;96934.88;5054774;28;20048;-69
2022/04/03 01:35:32;;;;;;;0.85;0.63;;;;;;;17.81;29.42;96935.84;5054770;28;20043;-71
2022/04/03 01:37:58;;;;;;;0.70;0.63;;;;;;;17.76;29.54;96925.84;5054479;28;20056;-69
2022/04/03 01:40:23;;;;;;;0.80;0.80;;;;;;;17.73;29.68;96933.47;5054708;28;20044;-71
2022/04/03 01:42:50;;;;;;;1.67;0.90;;;;;;;17.69;29.74;96930.47;5053729;28;20058;-69
2022/04/03 01:45:16;;;;;;;0.65;0.60;;;;;;;17.66;29.91;96931.75;5035249;28;20041;-70
2022/04/03 01:47:41;;;;;;;0.77;0.50;;;;;;;17.66;29.88;96930.91;5027750;28;20040;-69
2022/04/03 01:50:07;;;;;;;0.80;0.70;;;;;;;17.63;29.64;96937.56;5054991;28;20051;-71
2022/04/03 01:52:33;;;;;;;0.65;0.63;;;;;;;17.61;29.71;96933.50;5054180;28;20032;-70
2022/04/03 01:54:59;;;;;;;0.70;0.50;;;;;;;17.58;29.72;96925.91;5054330;28;20492;-68
2022/04/03 01:57:25;;;;;;;1.27;0.90;;;;;;;17.56;29.78;96925.34;5054764;28;20475;-70
2022/04/03 01:59:51;;;;;;;0.63;0.50;;;;;;;17.53;29.59;96915.94;5054719;28;20036;-71
2022/04/03 02:02:16;;;;;;;0.65;0.50;;;;;;;17.52;29.87;96922.31;5053812;28;20455;-68
2022/04/03 02:04:42;;;;;;;0.90;0.57;;;;;;;17.50;29.90;96916.38;5052348;28;20029;-70
2022/04/03 02:07:07;;;;;;;0.70;0.63;;;;;;;17.49;29.74;96923.59;5054536;28;20086;-69
2022/04/03 02:09:33;;;;;;;1.13;0.70;;;;;;;17.47;29.94;96914.16;5054319;28;20064;-69
2022/04/03 02:11:59;;;;;;;0.57;0.52;;;;;;;17.43;29.77;96913.81;5054117;28;20040;-69
2022/04/03 02:14:25;;;;;;;0.73;0.73;;;;;;;17.41;29.90;96920.44;5054386;28;20128;-71
2022/04/03 02:16:58;;;;;;;1.83;0.90;;;;;;;17.37;29.95;96918.22;5053897;28;20061;-70
2022/04/03 02:19:24;;;;;;;1.38;0.85;;;;;;;17.35;30.03;96917.63;5054501;28;20037;-70
2022/04/03 02:21:50;;;;;;;0.95;0.80;;;;;;;17.33;29.92;96913.56;5053815;28;20055;-70
2022/04/03 02:24:15;;;;;;;0.73;0.70;;;;;;;17.31;29.80;96908.44;5053705;28;20123;-69
2022/04/03 02:26:41;;;;;;;0.68;0.60;;;;;;;17.27;29.70;96904.63;5053885;28;20091;-70
2022/04/03 02:29:07;;;;;;;0.90;0.80;;;;;;;17.28;29.86;96900.06;5054239;28;20049;-70
2022/04/03 02:31:33;;;;;;;1.55;0.93;;;;;;;17.26;29.83;96910.16;5053703;28;20040;-69
2022/04/03 02:33:58;;;;;;;1.02;0.80;;;;;;;17.22;30.01;96902.59;5053795;28;20041;-69
2022/04/03 02:36:24;;;;;;;1.40;0.80;;;;;;;17.23;29.74;96911.44;5054135;28;20041;-70
2022/04/03 02:38:49;;;;;;;1.48;0.90;;;;;;;17.20;29.85;96909.22;5053829;28;20087;-70
2022/04/03 02:41:15;;;;;;;2.28;0.98;;;;;;;17.17;29.95;96905.16;5053791;28;20032;-69
2022/04/03 02:43:40;;;;;;;0.68;0.68;;;;;;;17.17;30.04;96899.00;5045544;28;20404;-69
2022/04/03 02:46:06;;;;;;;0.90;0.70;;;;;;;17.15;30.07;96896.56;5034184;28;20037;-69
2022/04/03 02:48:33;;;;;;;1.90;1.00;;;;;;;17.15;30.02;96906.41;5051241;28;20033;-70
2022/04/03 02:50:59;;;;;;;0.70;0.70;;;;;;;17.13;30.04;96908.53;5053907;28;20048;-71
2022/04/03 02:53:25;;;;;;;0.90;0.70;;;;;;;17.11;29.75;96895.38;5053786;28;20128;-68
2022/04/03 02:55:51;;;;;;;1.30;1.00;;;;;;;17.10;29.81;96909.78;5053497;28;20040;-69
2022/04/03 02:58:17;;;;;;;1.65;1.00;;;;;;;17.08;29.90;96902.00;5053386;28;20037;-70
2022/04/03 03:00:42;;;;;;;1.30;0.80;;;;;;;17.06;29.78;96906.75;5053496;28;20090;-70
2022/04/03 03:03:09;;;;;;;1.63;0.77;;;;;;;17.05;29.80;96905.13;5053475;28;20064;-70
2022/04/03 03:05:35;;;;;;;1.38;1.10;;;;;;;17.00;29.92;96907.66;5053315;28;20128;-69
2022/04/03 03:08:01;;;;;;;1.45;0.70;;;;;;;16.95;29.69;96904.03;5052702;28;20077;-70
2022/04/03 03:10:27;;;;;;;1.63;1.00;;;;;;;16.97;29.84;96899.28;5053194;28;20060;-69
2022/04/03 03:12:53;;;;;;;1.02;0.75;;;;;;;16.96;29.76;96913.66;5053116;28;20040;-71
2022/04/03 03:15:19;;;;;;;1.40;0.75;;;;;;;16.95;29.74;96923.56;5053459;28;20043;-69
2022/04/03 03:17:46;;;;;;;1.45;0.93;;;;;;;16.94;29.70;96913.88;5052250;28;20028;-71
2022/04/03 03:20:11;;;;;;;1.02;0.93;;;;;;;16.93;29.69;96917.59;5052451;28;20044;-69
2022/04/03 03:22:38;;;;;;;1.27;0.90;;;;;;;16.92;29.69;96915.97;5035083;28;20028;-70
2022/04/03 03:25:05;;;;;;;2.78;0.88;;;;;;;16.90;29.72;96913.53;5048428;28;20138;-70
2022/04/03 03:27:31;;;;;;;1.20;1.00;;;;;;;16.89;29.56;96911.06;5041733;28;20035;-69
2022/04/03 03:29:56;;;;;;;1.90;0.90;;;;;;;16.87;29.86;96907.81;5052824;28;20435;-70
2022/04/03 03:32:23;;;;;;;1.20;0.85;;;;;;;16.86;29.98;96917.69;5049585;28;20044;-69
2022/04/03 03:34:50;;;;;;;1.75;0.90;;;;;;;16.85;29.46;96920.56;5033268;28;20033;-70
2022/04/03 03:37:15;;;;;;;2.15;1.13;;;;;;;16.87;29.80;96926.50;5039806;28;20037;-70
2022/04/03 03:39:41;;;;;;;1.10;0.90;;;;;;;16.88;29.91;96923.63;5053128;28;20105;-69
2022/04/03 03:42:07;;;;;;;1.83;1.10;;;;;;;16.86;29.46;96919.53;5052795;28;20037;-68
2022/04/03 03:44:32;;;;;;;1.35;0.90;;;;;;;16.83;29.55;96922.66;5053133;28;20060;-68
2022/04/03 03:46:58;;;;;;;1.02;0.93;;;;;;;16.78;29.87;96916.13;5052134;28;20050;-70
2022/04/03 03:49:23;;;;;;;1.33;0.88;;;;;;;16.81;29.95;96922.06;5052841;28;20075;-70
2022/04/03 03:51:49;;;;;;;2.05;0.95;;;;;;;16.81;29.75;96930.09;5052830;28;20412;-68
2022/04/03 03:54:14;;;;;;;1.40;0.98;;;;;;;16.81;29.95;96924.75;5052935;28;20037;-67
2022/04/03 03:56:40;;;;;;;1.13;0.80;;;;;;;16.75;29.64;96924.59;5052787;28;20070;-71
2022/04/03 03:59:05;;;;;;;1.33;1.02;;;;;;;16.77;29.83;96929.69;5052272;28;20037;-69
2022/04/03 04:01:31;;;;;;;1.50;1.05;;;;;;;16.76;29.57;96922.75;5052492;28;20048;-70
2022/04/03 04:03:56;;;;;;;1.58;1.08;;;;;;;16.76;29.63;96936.91;5051420;28;20041;-68
2022/04/03 04:06:22;;;;;;;1.98;1.00;;;;;;;16.74;29.57;96936.31;5052240;28;20041;-68
2022/04/03 04:08:48;;;;;;;1.80;1.08;;;;;;;16.74;29.69;96930.97;5051818;28;20041;-70
2022/04/03 04:11:13;;;;;;;1.30;0.80;;;;;;;16.74;29.31;96944.31;5052657;28;20040;-70
2022/04/03 04:13:39;;;;;;;1.95;1.17;;;;;;;16.75;29.37;96943.28;5035032;28;20086;-70
2022/04/03 04:16:05;;;;;;;1.90;1.15;;;;;;;16.76;29.48;96949.47;5045627;28;20492;-69
2022/04/03 04:18:30;;;;;;;1.60;0.95;;;;;;;16.75;29.48;96948.63;5051919;28;20028;-69
2022/04/03 04:20:57;;;;;;;1.20;0.80;;;;;;;16.75;29.81;96963.84;5052247;28;20040;-69
2022/04/03 04:23:22;;;;;;;1.30;0.60;;;;;;;16.76;29.49;96966.28;5051667;28;20119;-68
2022/04/03 04:25:48;;;;;;;1.23;1.00;;;;;;;16.75;29.52;96959.31;5051587;28;20144;-69
2022/04/03 04:28:14;;;;;;;2.83;1.10;;;;;;;16.76;29.70;96966.28;5052714;28;20041;-70
2022/04/03 04:30:40;;;;;;;1.33;0.90;;;;;;;16.78;29.55;96964.19;5052538;28;20115;-68
2022/04/03 04:33:09;;;;;;;2.25;1.20;;;;;;;16.76;29.93;96966.28;5055224;28;20036;-68
2022/04/03 04:35:35;;;;;;;1.83;0.88;;;;;;;16.75;29.38;96956.63;5055592;28;20559;-68
2022/04/03 04:38:01;;;;;;;1.20;1.10;;;;;;;16.77;29.41;96964.41;5056031;28;20041;-68
2022/04/03 04:40:27;;;;;;;1.83;1.05;;;;;;;16.74;29.30;96971.03;5056117;28;20075;-69
2022/04/03 04:42:52;;;;;;;1.90;0.90;;;;;;;16.74;29.36;96973.69;5054873;28;20053;-68
2022/04/03 04:45:19;;;;;;;1.67;1.05;;;;;;;16.70;29.59;96977.03;5036083;28;20531;-68
2022/04/03 04:47:48;;;;;;;1.27;0.80;;;;;;;16.67;29.64;96972.97;5036243;28;20447;-69
2022/04/03 04:50:14;;;;;;;1.75;0.90;;;;;;;16.67;29.80;96975.63;5036236;28;20048;-70
2022/04/03 04:52:40;;;;;;;1.20;0.90;;;;;;;16.68;29.36;96985.28;5043201;28;20029;-68
2022/04/03 04:55:07;;;;;;;1.48;1.00;;;;;;;16.70;29.75;96982.38;5055697;28;20043;-68
2022/04/03 04:57:35;;;;;;;1.38;0.90;;;;;;;16.71;29.33;96987.47;5055213;28;20036;-69
2022/04/03 05:00:00;;;;;;;1.23;0.80;;;;;;;16.68;29.51;96982.63;5055152;28;20068;-69
2022/04/03 05:02:26;;;;;;;1.17;0.77;;;;;;;16.69;29.66;96980.75;5055959;28;20075;-68
2022/04/03 05:04:52;;;;;;;1.50;1.15;;;;;;;16.69;29.74;96986.09;5055575;28;20091;-68
2022/04/03 05:07:18;;;;;;;1.67;0.98;;;;;;;16.72;30.03;96996.31;5055352;28;20065;-70
2022/04/03 05:09:46;;;;;;;1.50;0.90;;;;;;;16.75;29.56;96994.03;5055477;28;20519;-69
2022/04/03 05:12:13;;;;;;;1.17;0.90;;;;;;;16.78;29.46;96998.91;5055582;28;20119;-71
2022/04/03 05:14:39;;;;;;;0.90;0.80;;;;;;;16.79;29.58;97002.38;5055768;28;20487;-69
2022/04/03 05:17:05;;;;;;;2.17;0.95;;;;;;;16.81;29.62;96999.50;5055385;28;20067;-68
2022/04/03 05:19:32;;;;;;;1.77;1.02;;;;;;;16.82;29.67;97004.63;5055055;28;20043;-69
2022/04/03 05:21:58;;;;;;;2.13;1.23;;;;;;;16.85;29.80;97008.69;5037017;28;20510;-69
2022/04/03 05:24:24;;;;;;;2.05;1.25;;;;;;;16.85;29.24;97014.03;5054952;28;20044;-70
2022/04/03 05:26:50;;;;;;;1.40;0.90;;;;;;;16.86;29.68;97008.47;5054157;28;20072;-70
2022/04/03 05:29:16;;;;;;;2.47;1.38;;;;;;;16.87;29.67;97011.94;5035201;28;20112;-70
2022/04/03 05:31:42;;;;;;;1.60;0.93;;;;;;;16.86;29.51;97015.66;5035591;28;20052;-70
2022/04/03 05:34:08;;;;;;;1.10;0.80;;;;;;;16.84;29.88;97017.72;5037305;28;20041;-68
2022/04/03 05:36:34;;;;;;;1.42;1.00;;;;;;;16.84;29.54;97012.41;5054637;28;20086;-70
2022/04/03 05:39:04;;;;;;;1.98;0.98;;;;;;;16.86;29.52;97008.47;5054997;28;20068;-70
2022/04/03 05:41:30;;;;;;;2.80;1.05;;;;;;;16.88;29.57;97009.06;5054793;28;20120;-69
2022/04/03 05:43:56;;;;;;;3.10;1.30;;;;;;;16.90;29.51;97019.53;5054011;28;20032;-68
2022/04/03 05:46:21;;;;;;;2.15;1.23;;;;;;;16.91;29.82;97024.63;5055093;28;20045;-70
2022/04/03 05:48:47;;;;;;;1.65;1.02;;;;;;;16.92;29.72;97031.59;5054420;28;20041;-71
2022/04/03 05:51:12;;;;;;;1.75;0.98;;;;;;;16.94;29.56;97034.06;5055103;28;20033;-68
2022/04/03 05:53:39;;;;;;;1.67;0.90;;;;;;;16.93;29.79;97038.59;5054318;28;20392;-68
2022/04/03 05:56:05;;;;;;;1.83;1.05;;;;;;;16.96;29.40;97033.88;5054698;28;20041;-68
2022/04/03 05:58:30;;;;;;;1.38;1.00;;;;;;;16.96;29.63;97033.88;5054275;28;20040;-69
2022/04/03 06:00:56;;;;;;;1.67;1.10;;;;;;;16.96;29.53;97042.72;5055149;28;20049;-67
2022/04/03 06:03:21;;;;;;;1.23;1.00;;;;;;;16.96;29.38;97049.91;5054177;28;20033;-68
2022/04/03 06:05:47;;;;;;;2.47;1.40;;;;;;;16.96;29.53;97050.72;5054504;28;20049;-69
2022/04/03 06:08:13;;;;;;;2.95;1.10;;;;;;;16.92;29.49;97052.19;5054088;28;20040;-68
2022/04/03 06:10:39;;;;;;;1.55;1.02;;;;;;;16.92;29.43;97050.31;5054371;28;20047;-68
2022/04/03 06:13:06;;;;;;;2.92;1.45;;;;;;;16.93;29.23;97056.47;5054379;28;20033;-68
2022/04/03 06:15:39;;;;;;;1.85;1.08;;;;;;;16.93;29.37;97054.59;5054551;28;20037;-68
2022/04/03 06:18:06;;;;;;;3.60;1.08;;;;;;;16.96;29.26;97049.91;5054160;28;20036;-70
2022/04/03 06:20:32;;;;;;;2.58;1.33;;;;;;;16.95;29.22;97054.44;5054309;28;20037;-69
2022/04/03 06:22:58;;;;;;;2.75;1.17;;;;;;;16.97;29.57;97054.19;5053441;28;20476;-69
2022/04/03 06:25:23;;;;;;;1.70;1.05;;;;;;;17.00;29.62;97051.09;5053922;28;20507;-66
2022/04/03 06:27:51;;;;;;;1.42;0.95;;;;;;;17.00;29.27;97057.22;5054055;28;20036;-68
2022/04/03 06:30:17;;;;;;;1.92;1.05;;;;;;;17.01;29.42;97066.88;5053989;28;20162;-67
2022/04/03 06:32:42;;;;;;;2.28;1.10;;;;;;;17.02;29.24;97071.19;5053474;28;20033;-69
2022/04/03 06:35:09;;;;;;;2.20;1.08;;;;;;;17.02;29.48;97071.19;5053685;28;20029;-69
2022/04/03 06:37:35;;;;;;;2.05;1.00;;;;;;;17.02;29.03;97067.72;5054133;28;20040;-68
2022/04/03 06:40:01;;;;;;;2.05;1.23;;;;;;;16.99;29.33;97068.97;5054414;28;20028;-69
2022/04/03 06:42:28;;;;;;;1.77;1.10;;;;;;;16.99;29.13;97079.63;5053206;28;20119;-70
2022/04/03 06:44:54;;;;;;;4.43;1.50;;;;;;;16.96;28.97;97093.47;5053974;28;20078;-70
2022/04/03 06:47:19;;;;;;;4.22;0.90;;;;;;;16.93;29.21;97085.84;5053671;28;20037;-69
2022/04/03 06:49:45;;;;;;;3.05;1.70;;;;;;;16.92;29.13;97093.03;5053521;28;20025;-70
2022/04/03 06:52:11;;;;;;;2.05;1.17;;;;;;;16.90;29.04;97100.47;5053417;28;20060;-70
2022/04/03 06:54:36;;;;;;;1.65;1.05;;;;;;;16.86;28.98;97098.44;5052605;28;20492;-70
2022/04/03 06:57:02;;;;;;;0.95;0.85;;;;;;;16.86;29.54;97107.31;5052849;28;20043;-70
2022/04/03 06:59:29;;;;;;;1.63;1.00;;;;;;;16.85;29.53;97107.50;5052658;28;20082;-67
2022/04/03 07:01:55;;;;;;;1.70;1.08;;;;;;;16.87;28.93;97113.44;5052646;28;20450;-68
2022/04/03 07:04:20;;;;;;;1.70;1.40;;;;;;;16.88;29.42;97113.25;5052301;28;20036;-67
2022/04/03 07:06:46;;;;;;;3.03;1.42;;;;;;;16.88;29.12;97117.75;5053607;28;20036;-68
2022/04/03 07:09:11;;;;;;;1.50;1.08;;;;;;;16.85;29.41;97128.88;5053382;28;20068;-70
2022/04/03 07:11:37;;;;;;;1.77;1.20;;;;;;;16.85;29.24;97135.03;5053076;28;20115;-71
2022/04/03 07:14:03;;;;;;;1.63;0.90;;;;;;;16.86;29.06;97130.50;5052516;28;20037;-67
2022/04/03 07:16:29;;;;;;;1.88;1.27;;;;;;;16.87;29.10;97148.16;5052647;28;20499;-69
2022/04/03 07:18:54;;;;;;;2.00;1.35;;;;;;;16.88;29.03;97150.63;5053239;28;20029;-69
2022/04/03 07:21:20;;;;;;;1.45;1.00;;;;;;;16.87;28.97;97153.50;5053147;28;20037;-70
2022/04/03 07:23:45;;;;;;;2.75;1.20;;;;;;;16.85;28.83;97158.25;5052494;28;20033;-69
2022/04/03 07:26:11;;;;;;;1.67;1.20;;;;;;;16.84;28.84;97172.63;5052548;28;20132;-68
2022/04/03 07:28:37;;;;;;;1.63;1.35;;;;;;;16.80;29.06;97169.59;5052516;28;20491;-68
2022/04/03 07:31:03;;;;;;;1.90;1.13;;;;;;;16.74;29.30;97160.59;5052906;28;20113;-70
2022/04/03 07:33:28;;;;;;;2.20;1.35;;;;;;;16.78;28.76;97177.84;5052411;28;20041;-70
2022/04/03 07:35:54;;;;;;;2.67;1.38;;;;;;;16.76;28.80;97179.91;5052739;28;20032;-68
2022/04/03 07:38:19;;;;;;;2.03;1.30;;;;;;;16.77;28.87;97178.03;5052152;28;20039;-69
2022/04/03 07:40:46;;;;;;;1.85;1.48;;;;;;;16.80;28.82;97190.16;5052698;28;20029;-71
2022/04/03 07:43:17;;;;;;;3.15;1.30;;;;;;;16.78;28.76;97185.84;5048757;28;20032;-71
2022/04/03 07:45:44;;;;;;;1.67;1.08;;;;;;;16.78;29.15;97193.03;5032946;28;20033;-68
2022/04/03 07:48:10;;;;;;;2.45;1.67;;;;;;;16.79;29.00;97194.66;5042990;28;20487;-69
2022/04/03 07:50:36;;;;;;;3.25;1.63;;;;;;;16.80;29.03;97187.47;5052809;28;20033;-70
2022/04/03 07:53:02;;;;;;;2.47;1.83;;;;;;;16.84;29.03;97191.31;5052162;28;20037;-71
2022/04/03 07:55:27;;;;;;;2.10;1.52;;;;;;;16.87;28.86;97204.25;5052490;28;20470;-69
2022/04/03 07:57:53;;;;;;;1.55;1.10;;;;;;;16.88;28.90;97200.53;5052318;28;20072;-71
2022/04/03 08:00:18;;;;;;;2.70;1.70;;;;;;;16.86;28.82;97205.28;5052601;28;20063;-70
2022/04/03 08:02:44;;;;;;;5.22;1.60;;;;;;;16.85;28.67;97215.16;5051556;28;20411;-70
2022/04/03 08:05:10;;;;;;;3.83;1.55;;;;;;;16.87;28.99;97217.59;5051104;28;20496;-68
2022/04/03 08:07:39;;;;;;;2.03;1.50;;;;;;;16.89;28.81;97215.53;5051539;28;20060;-70
2022/04/03 08:10:08;;;;;;;2.00;1.45;;;;;;;16.90;28.76;97220.69;5052588;28;20091;-68
2022/04/03 08:12:37;;;;;;;6.53;1.80;;;;;;;16.93;28.94;97227.44;5051447;28;20033;-68
2022/04/03 08:15:04;;;;;;;2.33;1.42;;;;;;;16.92;28.89;97228.47;5052049;28;20113;-70
2022/04/03 08:17:34;;;;;;;2.42;1.50;;;;;;;16.97;28.62;97233.16;5052409;28;20115;-70
2022/04/03 08:20:00;;;;;;;3.40;1.80;;;;;;;16.96;28.68;97235.03;5052179;28;20086;-68
2022/04/03 08:22:26;;;;;;;3.97;1.58;;;;;;;16.97;28.35;97236.69;5052151;28;20082;-69
2022/04/03 08:24:52;;;;;;;2.80;1.83;;;;;;;16.97;28.51;97241.19;5052118;28;20056;-69
2022/04/03 08:27:18;;;;;;;2.40;1.80;;;;;;;16.96;28.46;97247.56;5052354;28;20048;-69
2022/04/03 08:29:44;;;;;;;2.45;1.60;;;;;;;16.97;28.18;97244.69;5051975;28;20536;-71
2022/04/03 08:32:10;;;;;;;1.70;1.30;;;;;;;17.01;28.43;97245.88;5051918;28;20041;-70
2022/04/03 08:34:36;;;;;;;2.35;1.70;;;;;;;17.10;28.19;97251.75;5051868;28;20447;-69
2022/04/03 08:37:01;;;;;;;1.70;1.50;;;;;;;17.15;28.27;97251.09;5052250;28;20037;-69
2022/04/03 08:39:27;;;;;;;1.83;1.25;;;;;;;17.21;28.17;97258.25;5051990;28;20488;-70
2022/04/03 08:41:54;;;;;;;1.60;1.20;;;;;;;17.27;28.04;97260.03;5051819;28;20236;-69
2022/04/03 08:44:20;;;;;;;2.22;1.45;;;;;;;17.31;28.32;97266.56;5038822;28;20037;-69
2022/04/03 08:46:50;;;;;;;2.53;1.35;;;;;;;17.37;28.07;97256.84;5032110;28;20038;-70
2022/04/03 08:49:19;;;;;;;3.05;1.88;;;;;;;17.45;28.22;97253.06;5032221;28;20037;-70
2022/04/03 08:51:47;;;;;;;2.60;1.60;;;;;;;17.47;28.15;97254.50;5032028;28;20044;-70
2022/04/03 08:54:17;;;;;;;2.88;1.70;;;;;;;17.56;28.07;97256.88;5047679;28;20037;-69
2022/04/03 08:56:42;;;;;;;2.78;1.50;;;;;;;17.63;27.90;97260.31;5051954;28;20103;-71
2022/04/03 08:59:09;;;;;;;1.45;1.20;;;;;;;17.67;27.78;97254.28;5033284;28;20071;-68
2022/04/03 09:01:34;;;;;;;3.78;1.67;;;;;;;17.72;27.87;97261.63;5051384;28;20040;-68
2022/04/03 09:04:00;;;;;;;3.28;1.60;;;;;;;17.73;27.96;97263.25;5051514;28;20037;-70
2022/04/03 09:06:27;;;;;;;2.13;1.80;;;;;;;17.75;27.90;97266.53;5051689;28;20037;-69
2022/04/03 09:08:52;;;;;;;3.17;1.52;;;;;;;17.81;28.13;97272.84;5051042;28;20124;-68
2022/04/03 09:11:19;;;;;;;3.78;2.38;;;;;;;17.88;27.82;97270.91;5052079;28;20455;-67
2022/04/03 09:13:46;;;;;;;2.60;1.75;;;;;;;17.94;27.64;97270.00;5050873;28;20029;-68
2022/04/03 09:16:12;;;;;;;3.58;1.80;;;;;;;17.95;27.88;97268.97;5051446;28;20041;-68
2022/04/03 09:18:47;;;;;;;3.08;1.90;;;;;;;18.03;27.93;97280.44;5053352;28;20594;-67
2022/04/03 09:21:23;;;;;;;4.22;1.65;;;;;;;18.04;27.98;97280.22;5055580;28;20047;-68
2022/04/03 09:23:56;;;;;;;2.30;1.70;;;;;;;18.09;27.83;97282.22;5054659;28;20036;-68
2022/04/03 09:26:22;;;;;;;2.92;1.90;;;;;;;18.12;27.92;97284.44;5054803;28;20107;-69
2022/04/03 09:28:47;;;;;;;3.08;1.73;;;;;;;18.13;27.71;97294.13;5055432;28;20494;-67
2022/04/03 09:31:33;;;;;;;2.40;1.73;;;;;;;18.19;27.84;97298.56;5055347;28;20044;-69
2022/04/03 09:34:02;;;;;;;2.85;1.75;;;;;;;18.21;27.92;97299.16;5052403;28;20049;-69
2022/04/03 09:36:32;;;;;;;7.35;2.08;;;;;;;18.23;27.83;97301.63;5054806;28;20039;-70
2022/04/03 09:39:14;;;;;;;2.78;2.17;;;;;;;18.24;27.94;97300.56;5055311;28;20032;-67
2022/04/03 09:41:58;;;;;;;;;;;;;;;18.17;27.74;97299.84;5054802;28;20033;-67
2022/04/03 09:44:26;;;;;;;3.10;1.77;;;;;;;18.24;27.88;97301.38;5054136;28;19923;-67
2022/04/03 09:47:13;;;;;;;6.03;2.30;;;;;;;18.29;27.87;97322.13;5055162;28;20472;-67
2022/04/03 09:49:44;;;;;;;3.60;1.88;;;;;;;18.32;27.67;97320.84;5055029;28;20056;-68
2022/04/03 09:52:10;;;;;;;6.15;1.98;;;;;;;18.36;27.88;97330.06;5054728;28;20044;-67
2022/04/03 09:54:39;;;;;;;3.35;2.10;;;;;;;18.35;27.83;97333.78;5036659;28;20439;-70
2022/04/03 09:57:19;;;;;;;2.75;1.95;;;;;;;18.39;27.94;97343.00;5054593;28;20036;-69
2022/04/03 09:59:53;;;;;;;3.20;2.10;;;;;;;18.40;27.74;97342.75;5054957;28;20115;-69
2022/04/03 10:02:19;;;;;;;2.35;1.70;;;;;;;18.43;27.99;97344.19;5053937;28;20031;-69
2022/04/03 10:04:46;;;;;;;3.03;2.15;;;;;;;18.50;27.66;97336.06;5054364;28;20127;-69
2022/04/03 10:07:13;;;;;;;3.72;1.90;;;;;;;18.58;27.63;97343.78;5054110;28;20416;-70
2022/04/03 10:09:51;;;;;;;3.58;1.92;;;;;;;18.68;27.57;97335.22;5054889;28;20491;-70
2022/04/03 10:12:21;;;;;;;6.38;2.35;;;;;;;18.68;27.50;97341.38;5053984;28;20033;-70
2022/04/03 10:14:50;;;;;;;3.10;2.23;;;;;;;18.67;27.41;97333.56;5036738;28;20055;-70
2022/04/03 10:17:17;;;;;;;5.45;2.67;;;;;;;18.66;27.52;97345.31;5053885;28;20275;-69
2022/04/03 10:19:43;;;;;;;4.20;2.60;;;;;;;18.66;27.71;97340.81;5053651;28;20091;-68
2022/04/03 10:22:18;;;;;;;5.40;2.50;;;;;;;18.68;27.79;97337.88;5053847;28;20431;-70
2022/04/03 10:24:46;;;;;;;5.70;2.53;;;;;;;18.67;27.70;97346.97;5054004;28;20041;-69
2022/04/03 10:27:19;;;;;;;4.10;2.40;;;;;;;18.68;27.70;97338.69;5054233;28;20484;-69
2022/04/03 10:29:48;;;;;;;5.60;2.17;;;;;;;18.66;27.64;97348.84;5053594;28;20127;-70
2022/04/03 10:32:30;;;;;;;4.82;2.50;;;;;;;18.69;28.02;97350.25;5053560;28;20047;-70
2022/04/03 10:34:58;;;;;;;4.28;2.50;;;;;;;18.72;27.89;97347.91;5054202;28;20063;-69
2022/04/03 10:37:25;;;;;;;3.53;2.80;;;;;;;18.73;27.92;97349.53;5053455;28;20025;-69
2022/04/03 10:39:54;;;;;;;5.65;2.63;;;;;;;18.74;27.65;97347.72;5054134;28;20036;-71
2022/04/03 10:42:28;;;;;;;4.90;2.50;;;;;;;18.74;27.68;97364.56;5053452;28;20067;-68
2022/04/03 10:45:11;;;;;;;6.57;2.38;;;;;;;18.73;27.85;97356.78;5051212;28;20114;-69
2022/04/03 10:47:41;;;;;;;4.18;2.38;;;;;;;18.76;27.93;97361.66;5053346;28;20045;-68
2022/04/03 10:50:08;;;;;;;7.95;1.95;;;;;;;18.81;27.81;97369.03;5052971;28;20044;-68
2022/04/03 10:52:36;;;;;;;3.55;2.10;;;;;;;18.84;27.58;97365.88;5053380;28;20373;-68
2022/04/03 10:55:21;;;;;;;3.72;2.10;;;;;;;18.82;27.46;97376.03;5053882;28;20044;-69
2022/04/03 10:57:55;;;;;;;3.30;1.90;;;;;;;18.93;27.55;97361.84;5053148;28;20041;-68
2022/04/03 11:00:23;;;;;;;3.20;1.80;;;;;;;19.03;27.37;97374.72;5033760;28;20029;-69
2022/04/03 11:02:52;;;;;;;2.70;1.80;;;;;;;19.07;27.03;97381.25;5033591;28;20041;-69
2022/04/03 11:05:25;;;;;;;3.22;1.85;;;;;;;19.10;27.22;97375.44;5045301;28;20140;-67
2022/04/03 11:08:00;;;;;;;5.10;1.90;;;;;;;19.10;27.54;97386.16;5052821;28;20036;-68
2022/04/03 11:11:07;;;;;;;3.25;2.00;;;;;;;19.13;27.73;97392.91;5053489;28;20052;-69
2022/04/03 11:13:33;;;;;;;6.57;2.20;;;;;;;19.12;27.78;97389.44;5048343;28;20373;-69
2022/04/03 11:16:02;;;;;;;11.43;3.28;;;;;;;19.19;27.87;97400.06;5053073;28;20036;-70
2022/04/03 11:18:36;;;;;;;16.75;4.13;;;;;;;19.25;28.45;97398.31;5053608;28;20484;-69
2022/04/03 11:21:10;;;;;;;20.10;5.68;;;;;;;19.35;28.59;97401.25;5053461;28;20565;-70
2022/04/03 11:23:45;;;;;;;10.75;4.00;;;;;;;19.49;28.34;97399.19;5052859;28;20052;-70
2022/04/03 11:26:12;;;;;;;13.20;4.38;;;;;;;19.52;28.32;97396.84;5052819;28;20110;-69
2022/04/03 11:28:39;;;;;;;9.85;3.92;;;;;;;19.54;28.47;97411.91;5052748;28;20564;-67
2022/04/03 11:31:05;;;;;;;11.45;3.55;;;;;;;19.51;28.52;97411.31;5052979;28;20107;-70
2022/04/03 11:33:32;;;;;;;13.02;3.95;;;;;;;19.47;28.68;97410.16;5051418;28;20502;-68